Time;durP1;ratioP1;P1;durP2;ratioP2;P2;SDS_P1;SDS_P2;PMS_P1;PMS_P2;Temp;Humidity;BMP_temperature;BMP_pressure;BME280_temperature;BME280_humidity;BME280_pressure;Samples;Min_cycle;Max_cycle;Signal;HPM_P1;HPM_P2
2023/07/10 00:02:13;;;;;;;6.30;5.73;;;;;;;26.63;45.96;158222.50;4921645;29;20547;-82
2023/07/10 00:04:39;;;;;;;5.87;5.17;;;;;;;26.56;45.34;158205.44;4927298;29;20934;-82
2023/07/10 00:07:06;;;;;;;6.23;5.73;;;;;;;26.57;45.88;158208.06;4924886;29;20910;-82
2023/07/10 00:09:33;;;;;;;6.40;5.50;;;;;;;26.53;45.45;158198.91;4895187;29;22094;-82
2023/07/10 00:11:59;;;;;;;5.60;4.90;;;;;;;26.56;44.84;158206.75;4915894;29;20484;-82
2023/07/10 00:14:26;;;;;;;6.30;5.00;;;;;;;26.57;44.72;158209.41;4914412;29;20464;-83
2023/07/10 00:16:53;;;;;;;5.97;5.40;;;;;;;26.52;45.61;158196.31;4923824;29;20456;-82
2023/07/10 00:19:21;;;;;;;5.63;5.13;;;;;;;26.52;45.38;158196.31;4908007;29;20484;-82
2023/07/10 00:21:47;;;;;;;6.90;5.10;;;;;;;26.51;45.39;158193.66;4926626;29;20460;-82
2023/07/10 00:24:14;;;;;;;5.63;5.13;;;;;;;26.56;45.54;158206.75;4908528;29;20460;-82
2023/07/10 00:26:42;;;;;;;6.03;4.90;;;;;;;26.57;45.70;158208.06;4901407;29;20715;-82
2023/07/10 00:29:15;;;;;;;6.03;5.40;;;;;;;26.59;45.27;158214.63;4902616;29;20999;-82
2023/07/10 00:31:41;;;;;;;6.00;5.40;;;;;;;26.58;44.85;158212.00;4907028;29;20528;-82
2023/07/10 00:34:12;;;;;;;6.47;4.97;;;;;;;26.55;45.29;158204.19;4926648;29;20456;-82
2023/07/10 00:36:41;;;;;;;5.83;5.17;;;;;;;26.49;45.06;158188.44;4911105;29;20495;-82
2023/07/10 00:39:20;;;;;;;6.60;6.00;;;;;;;26.48;45.88;158185.81;4898088;29;20451;-82
2023/07/10 00:41:48;;;;;;;10.60;5.40;;;;;;;26.43;46.10;158172.72;4925152;29;20452;-82
2023/07/10 00:44:14;;;;;;;6.27;5.63;;;;;;;26.35;46.00;158151.75;4908707;29;20472;-82
2023/07/10 00:46:47;;;;;;;5.87;5.20;;;;;;;26.32;46.13;158143.88;4921984;29;20468;-82
2023/07/10 00:49:18;;;;;;;6.17;5.60;;;;;;;26.30;46.42;158137.34;4927992;29;21135;-82
2023/07/10 00:51:54;;;;;;;5.77;5.30;;;;;;;26.23;45.99;158120.34;4926168;29;20570;-82
2023/07/10 00:54:27;;;;;;;5.13;4.70;;;;;;;26.22;46.07;158116.38;4912497;29;20456;-82
2023/07/10 00:56:55;;;;;;;5.70;4.93;;;;;;;26.19;46.30;158108.53;4926940;29;20482;-82
2023/07/10 00:59:24;;;;;;;5.83;5.33;;;;;;;26.10;46.70;158084.94;4899528;29;20759;-82
2023/07/10 01:02:17;;;;;;;5.83;5.10;;;;;;;26.05;46.90;158071.84;4897022;29;20464;-82
2023/07/10 01:04:46;;;;;;;5.97;5.47;;;;;;;26.05;47.04;158071.84;4910723;29;20479;-82
2023/07/10 01:07:15;;;;;;;5.50;5.10;;;;;;;25.99;46.73;158057.44;4918042;29;20471;-82
2023/07/10 01:09:48;;;;;;;9.27;5.70;;;;;;;25.99;46.23;158057.44;4925874;29;20451;-82
2023/07/10 01:12:14;;;;;;;5.87;5.27;;;;;;;25.99;46.89;158058.75;4912632;29;21032;-82
2023/07/10 01:14:41;;;;;;;5.70;5.20;;;;;;;25.96;47.18;158049.59;4914395;29;20968;-82
2023/07/10 01:17:09;;;;;;;5.83;5.33;;;;;;;25.93;47.69;158041.72;4899816;29;20463;-82
2023/07/10 01:19:37;;;;;;;6.07;5.53;;;;;;;25.88;48.06;158028.63;4886883;29;20491;-82
2023/07/10 01:22:09;;;;;;;8.27;5.70;;;;;;;25.88;49.12;158029.94;4921055;29;20462;-82
2023/07/10 01:24:36;;;;;;;6.37;5.40;;;;;;;25.92;48.98;158040.41;4907126;29;20453;-82
2023/07/10 01:27:04;;;;;;;7.43;6.73;;;;;;;26.00;50.89;158060.03;4910848;29;20983;-82
2023/07/10 01:29:35;;;;;;;8.00;7.20;;;;;;;26.07;51.32;158078.41;4919165;29;20465;-82
2023/07/10 01:32:02;;;;;;;7.70;6.87;;;;;;;26.13;52.00;158094.16;4894695;29;20493;-82
2023/07/10 01:34:37;;;;;;;9.10;7.30;;;;;;;26.16;52.55;158100.72;4918902;29;20559;-82
2023/07/10 01:37:06;;;;;;;7.27;6.67;;;;;;;26.12;52.29;158090.16;4900946;29;20469;-82
2023/07/10 01:39:39;;;;;;;7.70;7.00;;;;;;;26.10;53.73;158084.94;4907531;29;20462;-82
2023/07/10 01:42:06;;;;;;;7.90;7.20;;;;;;;26.07;53.04;158077.06;4902164;29;20460;-82
2023/07/10 01:44:35;;;;;;;7.80;7.10;;;;;;;26.04;53.52;158070.53;4913967;29;20468;-82
2023/07/10 01:47:03;;;;;;;6.93;6.33;;;;;;;26.00;54.21;158060.03;4904664;29;20831;-82
2023/07/10 01:49:33;;;;;;;7.80;7.07;;;;;;;25.96;55.26;158049.59;4882620;29;20579;-82
2023/07/10 01:52:02;;;;;;;9.67;7.20;;;;;;;25.90;54.24;158035.19;4894405;29;20480;-82
2023/07/10 01:54:31;;;;;;;7.40;6.70;;;;;;;25.87;54.37;158026.00;4910724;29;20941;-82
2023/07/10 01:56:58;;;;;;;6.90;6.30;;;;;;;25.89;53.71;158031.25;4910872;29;20460;-82
2023/07/10 01:59:24;;;;;;;7.83;7.13;;;;;;;25.92;53.46;158039.13;4905843;29;20466;-82
2023/07/10 02:01:51;;;;;;;6.77;6.23;;;;;;;25.82;53.18;158012.91;4925357;29;20505;-82
2023/07/10 02:04:18;;;;;;;7.37;6.23;;;;;;;25.82;53.29;158014.22;4921125;29;20465;-82
2023/07/10 02:06:44;;;;;;;8.80;7.00;;;;;;;25.75;53.41;157994.59;4891662;29;20892;-82
2023/07/10 02:09:11;;;;;;;7.27;6.47;;;;;;;25.72;53.51;157986.72;4923232;29;20457;-82
2023/07/10 02:11:39;;;;;;;7.73;6.90;;;;;;;25.60;54.49;157955.34;4894058;29;20465;-82
2023/07/10 02:14:07;;;;;;;7.43;6.73;;;;;;;25.51;55.10;157933.06;4907226;29;20829;-82
2023/07/10 02:16:34;;;;;;;7.00;6.40;;;;;;;25.46;55.22;157918.63;4907678;29;20461;-82
2023/07/10 02:19:03;;;;;;;7.27;6.57;;;;;;;25.44;55.12;157916.00;4908660;29;20489;-82
2023/07/10 02:21:31;;;;;;;7.40;6.80;;;;;;;25.39;55.65;157902.91;4909250;29;20461;-82
2023/07/10 02:23:57;;;;;;;8.50;6.50;;;;;;;25.40;55.46;157905.53;4909783;29;20445;-82
2023/07/10 02:26:40;;;;;;;10.03;6.50;;;;;;;25.38;55.56;157900.31;4908724;29;20853;-82
2023/07/10 02:29:07;;;;;;;7.43;6.83;;;;;;;25.31;56.01;157880.69;4891592;29;21008;-82
2023/07/10 02:31:34;;;;;;;6.83;6.23;;;;;;;25.27;56.13;157871.53;4915398;29;20536;-82
2023/07/10 02:34:00;;;;;;;8.17;7.37;;;;;;;25.23;56.19;157861.03;4907788;29;20596;-82
2023/07/10 02:36:29;;;;;;;7.40;6.80;;;;;;;25.23;56.29;157859.75;4887067;29;20505;-82
2023/07/10 02:38:56;;;;;;;7.93;7.13;;;;;;;25.23;56.64;157859.75;4892983;29;20552;-82
2023/07/10 02:41:22;;;;;;;7.97;6.97;;;;;;;25.25;56.65;157866.28;4919836;29;20968;-82
2023/07/10 02:43:50;;;;;;;7.33;6.63;;;;;;;25.29;56.54;157875.44;4919273;29;20797;-82
2023/07/10 02:46:18;;;;;;;9.33;6.40;;;;;;;25.28;56.79;157872.84;4907904;29;20462;-82
2023/07/10 02:48:45;;;;;;;6.90;6.30;;;;;;;25.22;57.29;157858.44;4908689;29;20450;-82
2023/07/10 02:51:11;;;;;;;8.87;7.33;;;;;;;25.22;56.90;157858.44;4910842;29;21051;-83
2023/07/10 02:53:38;;;;;;;8.50;7.33;;;;;;;25.23;57.31;157861.03;4894028;29;20469;-82
2023/07/10 02:56:05;;;;;;;8.33;6.87;;;;;;;25.20;57.36;157851.91;4906570;29;20463;-82
2023/07/10 02:58:32;;;;;;;6.63;5.90;;;;;;;25.23;57.55;157861.03;4924677;29;20463;-82
2023/07/10 03:01:01;;;;;;;9.73;7.30;;;;;;;25.26;58.35;157868.88;4908929;29;20473;-82
2023/07/10 03:03:28;;;;;;;7.73;6.93;;;;;;;25.26;59.37;157868.88;4903723;29;20996;-82
2023/07/10 03:05:55;;;;;;;9.13;6.60;;;;;;;25.22;61.00;157858.44;4908737;29;20469;-82
2023/07/10 03:08:22;;;;;;;7.63;7.03;;;;;;;25.19;61.47;157849.25;4912919;29;20960;-82
2023/07/10 03:10:48;;;;;;;11.93;7.50;;;;;;;25.17;61.09;157845.34;4911123;29;20524;-82
2023/07/10 03:13:15;;;;;;;8.30;7.40;;;;;;;25.14;61.21;157837.50;4894509;29;21067;-82
2023/07/10 03:15:42;;;;;;;6.83;6.17;;;;;;;25.09;61.30;157824.41;4910041;29;20449;-82
2023/07/10 03:18:10;;;;;;;9.17;7.30;;;;;;;25.08;61.12;157821.78;4916695;29;20897;-82
2023/07/10 03:20:40;;;;;;;10.20;7.10;;;;;;;25.07;60.83;157819.16;4926453;29;20579;-82
2023/07/10 03:23:07;;;;;;;8.10;7.30;;;;;;;25.05;60.94;157813.91;4913996;29;21026;-82
2023/07/10 03:25:34;;;;;;;8.40;7.47;;;;;;;25.00;60.79;157799.53;4916423;29;20831;-82
2023/07/10 03:28:01;;;;;;;8.10;7.30;;;;;;;24.96;61.15;157790.41;4925668;29;20533;-82
2023/07/10 03:30:27;;;;;;;8.83;6.60;;;;;;;24.95;61.20;157787.75;4913876;29;20466;-82
2023/07/10 03:32:54;;;;;;;7.60;6.90;;;;;;;24.90;60.97;157774.69;4915796;29;20924;-82
2023/07/10 03:35:22;;;;;;;8.90;7.67;;;;;;;24.87;61.02;157766.84;4932793;29;20452;-82
2023/07/10 03:37:48;;;;;;;7.77;6.97;;;;;;;24.86;61.44;157764.19;4908679;29;20464;-82
2023/07/10 03:40:15;;;;;;;7.73;7.00;;;;;;;24.84;61.42;157758.97;4912433;29;20465;-82
2023/07/10 03:42:41;;;;;;;8.10;7.10;;;;;;;24.85;61.05;157760.28;4911270;29;20464;-82
2023/07/10 03:45:09;;;;;;;9.10;7.20;;;;;;;24.87;61.23;157766.84;4927356;29;20562;-82
2023/07/10 03:47:36;;;;;;;8.00;6.07;;;;;;;24.88;60.82;157769.47;4896315;29;20480;-82
2023/07/10 03:50:03;;;;;;;7.00;6.30;;;;;;;24.94;60.53;157785.13;4905069;29;20873;-82
2023/07/10 03:52:30;;;;;;;7.50;6.80;;;;;;;24.96;60.44;157790.41;4915843;29;20479;-82
2023/07/10 03:54:57;;;;;;;7.60;6.83;;;;;;;25.00;59.80;157799.53;4913593;29;20459;-82
2023/07/10 03:57:24;;;;;;;7.70;7.00;;;;;;;25.02;60.58;157806.06;4914834;29;20463;-82
2023/07/10 03:59:50;;;;;;;7.70;7.00;;;;;;;25.02;60.16;157806.06;4919768;29;20507;-82
2023/07/10 04:02:17;;;;;;;8.00;7.17;;;;;;;25.04;60.07;157811.34;4903073;29;20967;-81
2023/07/10 04:04:43;;;;;;;7.87;7.00;;;;;;;25.06;60.25;157815.25;4917299;29;20575;-82
2023/07/10 04:07:10;;;;;;;12.60;6.70;;;;;;;25.06;60.41;157816.56;4914468;29;20842;-82
2023/07/10 04:09:38;;;;;;;7.40;6.67;;;;;;;25.07;59.91;157817.88;4927066;29;20864;-82
2023/07/10 04:12:06;;;;;;;7.83;6.60;;;;;;;25.11;60.05;157829.63;4930441;29;20449;-82
2023/07/10 04:14:36;;;;;;;7.57;5.97;;;;;;;25.14;59.92;157836.19;4917431;29;20473;-82
2023/07/10 04:17:04;;;;;;;7.67;6.97;;;;;;;25.17;59.78;157844.03;4929484;29;20456;-82
2023/07/10 04:19:30;;;;;;;7.73;6.80;;;;;;;25.20;59.66;157853.22;4912905;29;20496;-82
2023/07/10 04:21:57;;;;;;;7.23;6.63;;;;;;;25.23;59.72;157861.03;4912924;29;20487;-82
2023/07/10 04:24:23;;;;;;;8.67;7.03;;;;;;;25.27;59.75;157871.53;4928833;29;20460;-82
2023/07/10 04:26:52;;;;;;;9.10;6.40;;;;;;;25.29;59.38;157875.44;4906397;29;20502;-82
2023/07/10 04:29:19;;;;;;;8.27;7.00;;;;;;;25.31;59.81;157881.97;4930021;29;20456;-82
2023/07/10 04:31:45;;;;;;;8.10;6.80;;;;;;;25.32;59.58;157884.59;4930046;29;20468;-82
2023/07/10 04:34:12;;;;;;;7.83;6.50;;;;;;;25.33;59.45;157887.22;4923329;29;20480;-82
2023/07/10 04:36:42;;;;;;;7.00;6.40;;;;;;;25.32;59.83;157884.59;4910883;29;20468;-82
2023/07/10 04:39:09;;;;;;;7.87;6.60;;;;;;;25.31;59.83;157881.97;4927714;29;20491;-83
2023/07/10 04:41:36;;;;;;;7.67;6.53;;;;;;;25.32;59.41;157883.28;4903191;29;20472;-82
2023/07/10 04:44:04;;;;;;;8.03;7.23;;;;;;;25.32;59.71;157883.28;4937953;29;20983;-83
2023/07/10 04:46:31;;;;;;;6.53;5.80;;;;;;;25.35;60.07;157891.13;4913702;29;20472;-82
2023/07/10 04:48:58;;;;;;;7.27;6.50;;;;;;;25.32;60.06;157883.28;4918038;29;20471;-82
2023/07/10 04:51:24;;;;;;;7.23;5.67;;;;;;;25.35;59.67;157891.13;4914883;29;20464;-82
2023/07/10 04:53:51;;;;;;;8.07;6.80;;;;;;;25.35;59.91;157892.47;4930743;29;20595;-82
2023/07/10 04:56:19;;;;;;;7.63;6.07;;;;;;;25.39;59.94;157901.59;4913238;29;20471;-82
2023/07/10 04:58:48;;;;;;;6.63;5.97;;;;;;;25.41;59.72;157906.84;4913875;29;20444;-82
2023/07/10 05:01:17;;;;;;;7.33;6.60;;;;;;;25.43;59.34;157912.09;4906743;29;20975;-82
2023/07/10 05:03:43;;;;;;;6.90;6.27;;;;;;;25.44;59.44;157914.72;4925150;29;20936;-82
2023/07/10 05:06:10;;;;;;;13.30;7.40;;;;;;;25.48;59.29;157923.91;4925603;29;20710;-82
2023/07/10 05:08:37;;;;;;;8.43;6.47;;;;;;;25.54;59.33;157939.63;4926043;29;20465;-82
2023/07/10 05:11:03;;;;;;;8.03;7.07;;;;;;;25.71;59.53;157984.09;4924562;29;20461;-82
2023/07/10 05:13:30;;;;;;;8.80;7.07;;;;;;;25.94;59.00;158044.34;4922037;29;20483;-83
2023/07/10 05:15:58;;;;;;;8.17;7.37;;;;;;;26.03;58.80;158067.88;4921527;29;20815;-82
2023/07/10 05:18:26;;;;;;;7.77;6.93;;;;;;;26.06;58.77;158075.75;4923846;29;20523;-82
2023/07/10 05:20:53;;;;;;;7.77;6.97;;;;;;;26.08;57.95;158080.97;4925675;29;20449;-83
2023/07/10 05:23:21;;;;;;;9.33;7.13;;;;;;;26.06;58.42;158074.44;4925400;29;20453;-82
2023/07/10 05:26:03;;;;;;;8.33;7.20;;;;;;;26.04;58.39;158070.53;4924142;29;20465;-83
2023/07/10 05:28:30;;;;;;;12.33;7.20;;;;;;;26.07;58.23;158077.06;4918270;29;21015;-82
2023/07/10 05:30:58;;;;;;;7.40;6.70;;;;;;;26.18;58.06;158107.25;4908932;29;20464;-82
2023/07/10 05:33:26;;;;;;;7.80;7.00;;;;;;;26.43;57.49;158172.72;4925112;29;20484;-83
2023/07/10 05:35:54;;;;;;;7.00;6.40;;;;;;;26.67;57.14;158232.94;4909649;29;20551;-83
2023/07/10 05:38:27;;;;;;;8.20;7.30;;;;;;;26.99;55.83;158316.84;4920591;29;20555;-83
2023/07/10 05:40:54;;;;;;;9.30;7.13;;;;;;;27.27;55.82;158390.19;4920585;29;20998;-83
2023/07/10 05:43:21;;;;;;;8.37;7.67;;;;;;;27.51;54.13;158451.88;4922664;29;20499;-83
2023/07/10 05:45:48;;;;;;;7.90;6.57;;;;;;;27.78;54.55;158523.94;4923807;29;21025;-84
2023/07/10 05:48:15;;;;;;;7.70;6.90;;;;;;;28.03;53.46;158586.91;4912364;29;20484;-84
2023/07/10 05:50:51;;;;;;;8.00;7.27;;;;;;;28.28;53.03;158652.44;4906495;29;20927;-84
2023/07/10 05:53:19;;;;;;;7.23;6.53;;;;;;;28.30;52.85;158657.72;4918107;29;20626;-84
2023/07/10 05:55:46;;;;;;;8.73;7.07;;;;;;;28.25;52.75;158645.91;4917499;29;20464;-84
2023/07/10 05:58:13;;;;;;;7.93;6.93;;;;;;;28.11;52.97;158607.91;4906967;29;20496;-84
2023/07/10 06:00:42;;;;;;;10.67;7.80;;;;;;;27.92;52.75;158559.34;4909605;29;20466;-85
2023/07/10 06:03:09;;;;;;;10.67;7.47;;;;;;;27.84;52.97;158538.38;4915827;29;20483;-84
2023/07/10 06:05:35;;;;;;;8.33;7.53;;;;;;;27.95;52.96;158565.91;4925184;29;20456;-84
2023/07/10 06:08:03;;;;;;;7.50;6.90;;;;;;;28.14;52.20;158615.78;4920296;29;21018;-84
2023/07/10 06:10:30;;;;;;;9.03;7.00;;;;;;;28.38;52.28;158678.72;4909845;29;20707;-84
2023/07/10 06:12:56;;;;;;;7.30;6.70;;;;;;;28.58;51.23;158729.81;4891933;29;20460;-82
2023/07/10 06:15:23;;;;;;;8.50;7.70;;;;;;;28.73;50.79;158770.53;4908732;29;20480;-82
2023/07/10 06:17:50;;;;;;;9.27;6.90;;;;;;;28.94;50.36;158824.28;4916603;29;20471;-82
2023/07/10 06:20:17;;;;;;;9.57;7.70;;;;;;;29.16;49.98;158880.69;4923352;29;20484;-82
2023/07/10 06:22:43;;;;;;;7.07;6.37;;;;;;;29.40;49.88;158943.75;4922063;29;20549;-82
2023/07/10 06:25:11;;;;;;;7.57;6.77;;;;;;;29.58;49.06;158990.97;4922744;29;20476;-82
2023/07/10 06:27:38;;;;;;;9.40;7.30;;;;;;;29.77;48.85;159040.84;4918637;29;20464;-85
2023/07/10 06:30:06;;;;;;;7.23;6.50;;;;;;;29.94;48.91;159084.22;4923500;29;20468;-82
2023/07/10 06:32:34;;;;;;;11.53;7.50;;;;;;;30.12;48.68;159132.78;4923438;29;20471;-82
2023/07/10 06:35:00;;;;;;;10.57;7.50;;;;;;;30.30;48.33;159177.38;4929251;29;20476;-82
2023/07/10 06:37:27;;;;;;;9.00;7.40;;;;;;;30.39;47.90;159201.09;4922288;29;20472;-82
2023/07/10 06:40:08;;;;;;;6.80;6.20;;;;;;;30.35;47.67;159190.50;4925671;29;20503;-82
2023/07/10 06:42:36;;;;;;;9.43;6.37;;;;;;;30.30;47.88;159177.38;4922095;29;20600;-82
2023/07/10 06:45:06;;;;;;;7.10;6.40;;;;;;;30.38;48.38;159198.44;4923995;29;20452;-82
2023/07/10 06:47:33;;;;;;;6.93;6.23;;;;;;;30.57;48.27;159249.66;4924288;29;20475;-82
2023/07/10 06:50:00;;;;;;;7.07;6.37;;;;;;;30.75;47.94;159296.94;4927920;29;21000;-82
2023/07/10 06:52:26;;;;;;;7.77;7.00;;;;;;;30.94;47.82;159345.56;4927723;29;22598;-82
2023/07/10 06:54:53;;;;;;;7.47;6.33;;;;;;;31.17;46.94;159405.97;4924088;29;20488;-82
2023/07/10 06:57:20;;;;;;;6.63;6.13;;;;;;;31.30;46.29;159438.78;4928175;29;20595;-83
2023/07/10 06:59:48;;;;;;;6.10;5.60;;;;;;;31.38;45.72;159458.50;4922629;29;20452;-82
2023/07/10 07:02:14;;;;;;;7.23;5.60;;;;;;;31.28;46.38;159434.88;4928369;29;20471;-82
2023/07/10 07:04:41;;;;;;;6.37;5.87;;;;;;;31.20;46.85;159413.84;4926375;29;20602;-82
2023/07/10 07:07:08;;;;;;;7.60;5.50;;;;;;;31.11;46.63;159388.91;4922910;29;22089;-82
2023/07/10 07:09:35;;;;;;;8.00;5.93;;;;;;;31.04;46.77;159371.81;4927636;29;20473;-82
2023/07/10 07:12:04;;;;;;;5.93;5.43;;;;;;;31.05;47.07;159374.47;4909833;29;20544;-82
2023/07/10 07:14:31;;;;;;;6.80;6.20;;;;;;;31.00;47.02;159361.34;4920333;29;20475;-82
2023/07/10 07:16:58;;;;;;;6.33;5.73;;;;;;;30.99;47.34;159357.38;4923717;29;20893;-82
2023/07/10 07:19:25;;;;;;;8.17;6.13;;;;;;;30.91;46.97;159336.31;4920261;29;20491;-82
2023/07/10 07:21:52;;;;;;;6.70;6.10;;;;;;;30.88;47.50;159329.75;4922821;29;20460;-82
2023/07/10 07:24:18;;;;;;;8.03;6.03;;;;;;;30.82;47.38;159313.97;4920243;29;20457;-82
2023/07/10 07:26:45;;;;;;;6.27;5.73;;;;;;;30.70;47.70;159282.47;4926974;29;20456;-82
2023/07/10 07:29:12;;;;;;;7.40;6.40;;;;;;;30.60;47.91;159257.56;4921884;29;20487;-82
2023/07/10 07:31:39;;;;;;;7.60;6.93;;;;;;;30.50;48.43;159229.97;4910781;29;20464;-82
2023/07/10 07:34:07;;;;;;;7.23;6.23;;;;;;;30.43;49.02;159211.56;4927499;29;21077;-82
2023/07/10 07:36:34;;;;;;;6.90;6.30;;;;;;;30.38;49.19;159199.75;4923985;29;20546;-82
2023/07/10 07:39:01;;;;;;;6.30;5.77;;;;;;;30.32;49.03;159183.94;4909479;29;20980;-82
2023/07/10 07:41:27;;;;;;;6.83;6.23;;;;;;;30.32;49.16;159182.63;4922023;29;20448;-82
2023/07/10 07:43:54;;;;;;;6.40;5.60;;;;;;;30.52;48.68;159236.53;4927134;29;20886;-82
2023/07/10 07:46:20;;;;;;;6.60;6.00;;;;;;;30.71;47.95;159285.13;4920787;29;20525;-82
2023/07/10 07:48:47;;;;;;;7.70;6.57;;;;;;;30.93;48.26;159341.59;4901528;29;20773;-82
2023/07/10 07:51:15;;;;;;;7.53;5.90;;;;;;;31.13;47.13;159394.16;4926579;29;20460;-82
2023/07/10 07:53:42;;;;;;;7.33;6.70;;;;;;;31.23;47.60;159421.75;4911313;29;20512;-82
2023/07/10 07:56:08;;;;;;;7.03;5.90;;;;;;;31.41;46.84;159467.69;4924226;29;20537;-82
2023/07/10 07:58:35;;;;;;;6.27;5.70;;;;;;;31.67;46.93;159536.06;4910583;29;20473;-83
2023/07/10 08:01:02;;;;;;;6.70;6.10;;;;;;;31.92;45.54;159600.47;4921374;29;20460;-83
2023/07/10 08:03:29;;;;;;;7.10;6.10;;;;;;;32.16;45.66;159662.28;4910491;29;20490;-83
2023/07/10 08:05:56;;;;;;;6.73;5.47;;;;;;;32.27;45.00;159692.50;4926556;29;20453;-83
2023/07/10 08:08:24;;;;;;;6.03;5.43;;;;;;;32.32;44.64;159704.31;4921659;29;20485;-82
2023/07/10 08:10:51;;;;;;;8.50;6.03;;;;;;;32.48;44.20;159746.41;4921755;29;20519;-83
2023/07/10 08:13:19;;;;;;;5.60;5.10;;;;;;;32.60;43.99;159776.66;4925706;29;20457;-83
2023/07/10 08:15:46;;;;;;;6.00;5.50;;;;;;;32.78;43.12;159824.00;4920065;29;20487;-83
2023/07/10 08:18:12;;;;;;;7.33;6.00;;;;;;;32.75;43.31;159816.13;4920718;29;20471;-83
2023/07/10 08:20:39;;;;;;;6.67;6.07;;;;;;;32.78;44.27;159824.00;4927065;29;20485;-83
2023/07/10 08:23:06;;;;;;;7.73;5.80;;;;;;;32.89;43.47;159852.91;4921337;29;20468;-83
2023/07/10 08:25:34;;;;;;;6.43;5.70;;;;;;;33.03;43.73;159889.72;4922556;29;20453;-83
2023/07/10 08:28:01;;;;;;;6.23;5.63;;;;;;;33.03;43.52;159889.72;4911312;29;20804;-83
2023/07/10 08:30:28;;;;;;;7.73;5.63;;;;;;;33.02;43.51;159887.06;4921103;29;20551;-83
2023/07/10 08:32:55;;;;;;;7.00;6.00;;;;;;;33.17;43.31;159926.59;4920398;29;20468;-83
2023/07/10 08:35:22;;;;;;;6.57;5.87;;;;;;;33.22;42.91;159939.75;4921623;29;20820;-83
2023/07/10 08:37:52;;;;;;;6.63;6.03;;;;;;;33.14;42.64;159918.72;4925622;29;20865;-83
2023/07/10 08:40:23;;;;;;;7.73;6.00;;;;;;;33.04;43.72;159892.38;4909316;29;20457;-83
2023/07/10 08:42:51;;;;;;;5.60;5.13;;;;;;;33.03;43.63;159889.72;4923894;29;20875;-83
2023/07/10 08:45:25;;;;;;;6.90;6.30;;;;;;;33.08;43.92;159904.25;4918889;29;20820;-83
2023/07/10 08:47:57;;;;;;;7.30;6.70;;;;;;;33.08;44.28;159902.91;4921740;29;20835;-83
2023/07/10 08:50:29;;;;;;;7.30;6.50;;;;;;;33.20;44.08;159933.19;4925152;29;20947;-83
2023/07/10 08:53:00;;;;;;;6.63;5.90;;;;;;;33.26;43.57;159950.25;4919311;29;20467;-83
2023/07/10 08:55:30;;;;;;;7.60;6.50;;;;;;;33.26;43.96;159948.94;4925030;29;20480;-83
2023/07/10 08:57:59;;;;;;;6.30;5.80;;;;;;;33.26;43.76;159948.94;4894019;29;20460;-84
2023/07/10 09:00:27;;;;;;;6.97;6.27;;;;;;;33.18;44.05;159927.88;4925281;29;20529;-83
2023/07/10 09:03:01;;;;;;;6.43;5.77;;;;;;;33.28;44.27;159955.50;4920944;29;20508;-83
2023/07/10 09:05:30;;;;;;;6.53;6.03;;;;;;;33.48;43.55;160008.13;4924947;29;20444;-83
2023/07/10 09:08:01;;;;;;;6.60;6.00;;;;;;;33.60;42.92;160039.72;4923608;29;20552;-83
2023/07/10 09:10:39;;;;;;;7.40;6.67;;;;;;;33.65;42.64;160052.88;4927108;29;20448;-83
2023/07/10 09:13:11;;;;;;;7.47;6.77;;;;;;;33.61;43.70;160042.38;4924592;29;20508;-83
2023/07/10 09:15:42;;;;;;;7.23;6.73;;;;;;;33.32;44.14;159964.72;4924863;29;20467;-83
2023/07/10 09:18:15;;;;;;;6.73;6.20;;;;;;;32.93;45.04;159863.44;4920772;29;20515;-83
2023/07/10 09:20:41;;;;;;;6.47;5.97;;;;;;;32.94;44.43;159867.34;4924837;29;20487;-83
2023/07/10 09:23:17;;;;;;;7.17;6.07;;;;;;;33.07;44.83;159901.59;4924696;29;20464;-83
2023/07/10 09:25:43;;;;;;;6.57;5.93;;;;;;;33.01;45.57;159884.47;4926429;29;20439;-83
2023/07/10 09:28:11;;;;;;;7.17;6.60;;;;;;;33.04;45.44;159892.38;4920329;29;20526;-83
2023/07/10 09:30:49;;;;;;;6.67;6.07;;;;;;;32.84;46.04;159839.75;4919939;29;20475;-83
2023/07/10 09:33:16;;;;;;;8.20;7.43;;;;;;;32.48;47.01;159747.72;4924571;29;20824;-83
2023/07/10 09:35:46;;;;;;;10.20;6.37;;;;;;;32.25;47.37;159687.22;4920686;29;20471;-83
2023/07/10 09:38:13;;;;;;;7.77;7.17;;;;;;;32.28;48.01;159693.78;4919690;29;20825;-83
2023/07/10 09:40:43;;;;;;;13.60;7.00;;;;;;;32.32;48.11;159705.66;4925291;29;20469;-83
2023/07/10 09:43:14;;;;;;;7.43;6.83;;;;;;;32.00;48.66;159620.22;4923312;29;20523;-83
2023/07/10 09:45:44;;;;;;;9.10;7.37;;;;;;;31.52;50.05;159495.34;4919743;29;20560;-83
2023/07/10 09:48:16;;;;;;;8.37;7.67;;;;;;;31.45;50.43;159476.91;4919481;29;20459;-82
2023/07/10 09:50:45;;;;;;;8.50;6.80;;;;;;;31.92;49.69;159600.47;4923863;29;20456;-83
2023/07/10 09:53:23;;;;;;;8.00;7.30;;;;;;;32.39;47.96;159724.03;4920476;29;20461;-83
2023/07/10 09:55:50;;;;;;;8.13;7.33;;;;;;;32.59;48.07;159775.38;4909434;29;20480;-83
2023/07/10 09:58:18;;;;;;;7.30;6.63;;;;;;;32.70;47.76;159802.97;4917892;29;20461;-83
2023/07/10 10:00:45;;;;;;;8.17;7.57;;;;;;;32.58;47.07;159771.41;4924916;29;20464;-83
2023/07/10 10:03:18;;;;;;;8.37;7.57;;;;;;;31.87;48.78;159588.66;4924543;29;20469;-83
2023/07/10 10:05:52;;;;;;;9.13;8.33;;;;;;;31.14;51.01;159398.09;4925163;29;20440;-82
2023/07/10 10:08:21;;;;;;;8.10;7.50;;;;;;;31.21;50.28;159416.50;4910660;29;20461;-83
2023/07/10 10:11:00;;;;;;;8.10;7.50;;;;;;;31.27;49.53;159432.22;4928612;29;20971;-82
2023/07/10 10:13:31;;;;;;;8.00;7.30;;;;;;;31.58;50.29;159511.13;4928031;29;20460;-83
2023/07/10 10:16:03;;;;;;;8.93;8.03;;;;;;;31.98;48.87;159616.25;4929030;29;20826;-83
2023/07/10 10:18:37;;;;;;;7.60;7.00;;;;;;;32.20;48.60;159672.75;4924680;29;20466;-83
2023/07/10 10:21:04;;;;;;;7.80;7.10;;;;;;;32.37;48.00;159718.78;4926896;29;20526;-83
2023/07/10 10:23:34;;;;;;;8.20;7.50;;;;;;;32.40;47.82;159725.38;4925099;29;20464;-83
2023/07/10 10:26:11;;;;;;;7.70;7.00;;;;;;;32.54;47.38;159762.19;4924620;29;20964;-83
2023/07/10 10:28:45;;;;;;;8.70;8.00;;;;;;;32.58;47.18;159771.41;4922791;29;20961;-83
2023/07/10 10:31:24;;;;;;;8.07;7.47;;;;;;;32.64;47.32;159788.50;4925505;29;20456;-83
2023/07/10 10:34:03;;;;;;;8.10;7.50;;;;;;;32.64;45.85;159787.19;4927351;29;20547;-83
2023/07/10 10:36:38;;;;;;;8.83;8.03;;;;;;;32.58;45.98;159772.72;4923859;29;20469;-83
2023/07/10 10:39:10;;;;;;;8.53;7.63;;;;;;;32.21;46.92;159676.72;4926484;29;20975;-83
2023/07/10 10:41:45;;;;;;;7.93;7.33;;;;;;;32.15;47.41;159660.94;4926856;29;20456;-83
2023/07/10 10:44:22;;;;;;;8.23;7.53;;;;;;;32.20;47.18;159672.75;4926116;29;20460;-83
2023/07/10 10:46:56;;;;;;;8.50;7.80;;;;;;;32.26;47.73;159688.53;4926158;29;20982;-83
2023/07/10 10:49:47;;;;;;;8.83;7.53;;;;;;;32.46;46.25;159741.16;4925126;29;20530;-83
2023/07/10 10:52:22;;;;;;;8.47;7.33;;;;;;;32.37;46.80;159717.47;4912817;29;20555;-83
2023/07/10 10:55:14;;;;;;;8.10;7.40;;;;;;;32.22;47.92;159679.31;4926956;29;21006;-83
2023/07/10 10:57:47;;;;;;;8.33;7.63;;;;;;;32.14;47.71;159658.34;4925849;29;20841;-83
2023/07/10 11:00:25;;;;;;;8.27;7.57;;;;;;;31.87;48.58;159587.31;4924414;29;20477;-83
2023/07/10 11:03:10;;;;;;;8.80;7.80;;;;;;;31.90;47.52;159595.22;4927984;29;20447;-83
2023/07/10 11:05:40;;;;;;;8.47;7.70;;;;;;;32.17;47.45;159666.19;4923828;29;20455;-83
2023/07/10 11:08:19;;;;;;;9.10;8.20;;;;;;;32.46;47.01;159741.16;4908336;29;20448;-83
2023/07/10 11:10:47;;;;;;;7.60;6.90;;;;;;;32.46;47.21;159742.41;4923629;29;20633;-83
2023/07/10 11:13:30;;;;;;;7.90;7.20;;;;;;;32.24;46.82;159684.63;4925175;29;20457;-83
2023/07/10 11:16:00;;;;;;;8.13;7.53;;;;;;;32.18;47.87;159668.84;4927976;29;20562;-83
2023/07/10 11:18:27;;;;;;;8.60;7.77;;;;;;;32.11;48.34;159649.13;4927081;29;20979;-82
2023/07/10 11:20:54;;;;;;;8.33;7.60;;;;;;;32.28;46.95;159695.13;4921582;29;20462;-83
2023/07/10 11:23:35;;;;;;;8.37;7.77;;;;;;;32.48;47.12;159747.72;4928431;29;20463;-83
2023/07/10 11:26:03;;;;;;;8.53;7.90;;;;;;;32.50;46.67;159752.97;4912092;29;20461;-83
2023/07/10 11:28:32;;;;;;;8.67;7.77;;;;;;;32.37;47.00;159717.47;4930013;29;20455;-83
2023/07/10 11:31:22;;;;;;;8.97;8.17;;;;;;;32.10;47.39;159646.47;4928416;29;20463;-83
2023/07/10 11:33:53;;;;;;;8.10;7.50;;;;;;;32.32;46.29;159705.66;4923510;29;20457;-83